createdAt,value
2022-08-31T00:00:22.688Z,25.96
2022-08-31T00:01:07.645Z,25.95
2022-08-31T00:02:21.236Z,25.92
2022-08-31T00:03:07.770Z,25.89
2022-08-31T00:04:07.338Z,25.89
2022-08-31T00:05:07.846Z,25.86
2022-08-31T00:06:07.567Z,25.82
2022-08-31T00:07:07.541Z,25.77
2022-08-31T00:08:21.144Z,25.72
2022-08-31T00:09:07.454Z,25.68
2022-08-31T00:10:07.243Z,25.63
2022-08-31T00:11:07.467Z,25.61
2022-08-31T00:12:07.292Z,25.56
2022-08-31T00:13:07.617Z,25.56
2022-08-31T00:14:07.275Z,25.53
2022-08-31T00:15:07.316Z,25.53
2022-08-31T00:16:07.602Z,25.5
2022-08-31T00:17:07.677Z,25.46
2022-08-31T00:18:07.064Z,25.45
2022-08-31T00:19:07.143Z,25.40
2022-08-31T00:20:33.348Z,25.42
2022-08-31T00:21:07.631Z,25.38
2022-08-31T00:22:07.269Z,25.37
2022-08-31T00:23:07.538Z,25.29
2022-08-31T00:24:07.109Z,25.21
2022-08-31T00:25:07.354Z,25.13
2022-08-31T00:26:07.554Z,25.11
2022-08-31T00:27:07.704Z,25.10
2022-08-31T00:28:07.222Z,25.06
2022-08-31T00:29:07.367Z,25.01
2022-08-31T00:30:08.021Z,24.95
2022-08-31T00:31:07.470Z,24.89
2022-08-31T00:32:07.901Z,24.83
2022-08-31T00:33:07.460Z,24.79
2022-08-31T00:34:07.573Z,24.76
2022-08-31T00:35:08.023Z,24.70
2022-08-31T00:36:07.321Z,24.72
2022-08-31T00:37:07.259Z,24.68
2022-08-31T00:38:07.419Z,24.65
2022-08-31T00:39:07.341Z,24.56
2022-08-31T00:40:07.692Z,24.53
2022-08-31T00:41:07.328Z,24.50
2022-08-31T00:42:07.501Z,24.46
2022-08-31T00:43:07.666Z,24.47
2022-08-31T00:44:07.256Z,24.45
2022-08-31T00:45:07.567Z,24.48
2022-08-31T00:46:07.274Z,24.46
2022-08-31T00:47:07.513Z,24.43
2022-08-31T00:48:07.554Z,24.37
2022-08-31T00:49:07.449Z,24.37
2022-08-31T00:50:07.694Z,24.38
2022-08-31T00:51:07.014Z,24.38
2022-08-31T00:52:07.096Z,24.33
2022-08-31T00:53:07.331Z,24.30
2022-08-31T00:54:07.426Z,24.29
2022-08-31T00:55:07.599Z,24.25
2022-08-31T00:56:07.016Z,24.21
2022-08-31T00:57:07.121Z,24.20
2022-08-31T00:58:07.426Z,24.21
2022-08-31T00:59:07.624Z,24.25
2022-08-31T01:00:08.637Z,24.25
2022-08-31T01:01:07.477Z,24.27
2022-08-31T01:02:07.180Z,24.22
2022-08-31T01:03:07.483Z,24.22
2022-08-31T01:04:07.203Z,24.21
2022-08-31T01:05:07.535Z,24.21
2022-08-31T01:06:07.685Z,24.24
2022-08-31T01:07:07.269Z,24.22
2022-08-31T01:08:07.537Z,24.22
2022-08-31T01:09:07.557Z,24.22
2022-08-31T01:10:07.888Z,24.23
2022-08-31T01:11:07.501Z,24.22
2022-08-31T01:12:07.882Z,24.22
2022-08-31T01:13:07.315Z,24.24
2022-08-31T01:14:07.427Z,24.25
2022-08-31T01:15:07.921Z,24.25
2022-08-31T01:16:07.411Z,24.27
2022-08-31T01:17:07.789Z,24.24
2022-08-31T01:18:07.125Z,24.21
2022-08-31T01:19:07.222Z,24.21
2022-08-31T01:20:07.541Z,24.21
2022-08-31T01:21:07.602Z,24.23
2022-08-31T01:22:07.017Z,24.23
2022-08-31T01:23:07.428Z,24.27
2022-08-31T01:24:07.121Z,24.28
2022-08-31T01:25:07.404Z,24.26
2022-08-31T01:26:07.861Z,24.26
2022-08-31T01:27:07.039Z,24.23
2022-08-31T01:28:07.285Z,24.23
2022-08-31T01:29:07.389Z,24.17
2022-08-31T01:30:08.095Z,24.15
2022-08-31T01:31:07.635Z,24.15
2022-08-31T01:32:07.349Z,24.15
2022-08-31T01:33:07.470Z,24.19
2022-08-31T01:34:07.487Z,24.20
2022-08-31T01:35:07.594Z,24.19
2022-08-31T01:36:07.077Z,24.18
2022-08-31T01:37:06.988Z,24.20
2022-08-31T01:38:07.343Z,24.21
2022-08-31T01:39:07.696Z,24.21
2022-08-31T01:40:07.594Z,24.24
2022-08-31T01:41:07.263Z,24.24
2022-08-31T01:42:07.081Z,24.23
2022-08-31T01:43:07.484Z,24.19
2022-08-31T01:44:07.655Z,24.19
2022-08-31T01:45:07.575Z,24.15
2022-08-31T01:46:09.058Z,24.14
2022-08-31T01:47:07.456Z,24.13
2022-08-31T01:48:07.432Z,24.14
2022-08-31T01:49:07.477Z,24.14
2022-08-31T01:50:07.752Z,24.13
2022-08-31T01:51:07.188Z,24.12
2022-08-31T01:52:07.504Z,24.10
2022-08-31T01:53:07.540Z,24.07
2022-08-31T01:54:07.472Z,24.07
2022-08-31T01:55:07.603Z,24.07
2022-08-31T01:56:07.461Z,24.05
2022-08-31T01:57:07.620Z,24.04
2022-08-31T01:58:07.704Z,24.02
2022-08-31T01:59:08.474Z,24
2022-08-31T02:00:07.756Z,24.01
2022-08-31T02:01:15.565Z,24.01
2022-08-31T02:02:07.609Z,23.98
2022-08-31T02:03:07.112Z,23.94
2022-08-31T02:04:07.305Z,23.95
2022-08-31T02:05:07.652Z,23.93
2022-08-31T02:06:07.409Z,23.87
2022-08-31T02:07:07.692Z,23.82
2022-08-31T02:08:07.361Z,23.79
2022-08-31T02:09:07.531Z,23.76
2022-08-31T02:10:07.364Z,23.77
2022-08-31T02:11:12.342Z,23.73
2022-08-31T02:12:07.434Z,23.75
2022-08-31T02:13:12.747Z,23.75
2022-08-31T02:14:07.712Z,23.78
2022-08-31T02:15:15.496Z,23.80
2022-08-31T02:16:07.541Z,23.81
2022-08-31T02:17:07.695Z,23.80
2022-08-31T02:18:06.962Z,23.79
2022-08-31T02:19:06.973Z,23.78
2022-08-31T02:20:07.413Z,23.78
2022-08-31T02:21:07.802Z,23.78
2022-08-31T02:22:07.111Z,23.77
2022-08-31T02:23:07.199Z,23.78
2022-08-31T02:24:07.384Z,23.75
2022-08-31T02:25:08.530Z,23.75
2022-08-31T02:26:07.603Z,23.74
2022-08-31T02:27:07.696Z,23.72
2022-08-31T02:28:07.240Z,23.71
2022-08-31T02:29:07.512Z,23.73
2022-08-31T02:30:07.924Z,23.73
2022-08-31T02:31:07.291Z,23.74
2022-08-31T02:32:08.028Z,23.75
2022-08-31T02:33:07.696Z,23.71
2022-08-31T02:34:06.970Z,23.70
2022-08-31T02:35:07.241Z,23.66
2022-08-31T02:36:07.534Z,23.64
2022-08-31T02:37:07.307Z,23.64
2022-08-31T02:38:07.597Z,23.63
2022-08-31T02:39:07.056Z,23.62
2022-08-31T02:40:07.423Z,23.65
2022-08-31T02:41:07.461Z,23.67
2022-08-31T02:42:07.571Z,23.70
2022-08-31T02:43:07.506Z,23.70
2022-08-31T02:44:07.245Z,23.75
2022-08-31T02:45:07.640Z,23.77
2022-08-31T02:46:07.719Z,23.78
2022-08-31T02:47:07.345Z,23.81
2022-08-31T02:48:07.566Z,23.81
2022-08-31T02:49:07.636Z,23.79
2022-08-31T02:50:07.395Z,23.77
2022-08-31T02:51:07.376Z,23.78
2022-08-31T02:52:07.363Z,23.78
2022-08-31T02:53:07.386Z,23.78
2022-08-31T02:54:07.689Z,23.76
2022-08-31T02:55:07.222Z,23.74
2022-08-31T02:56:07.501Z,23.73
2022-08-31T02:57:07.569Z,23.74
2022-08-31T02:58:07.442Z,23.75
2022-08-31T02:59:07.339Z,23.73
2022-08-31T03:00:08.136Z,23.75
2022-08-31T03:01:07.690Z,23.77
2022-08-31T03:02:07.673Z,23.77
2022-08-31T03:03:07.501Z,23.77
2022-08-31T03:04:07.167Z,23.75
2022-08-31T03:05:07.476Z,23.72
2022-08-31T03:06:07.603Z,23.68
2022-08-31T03:07:07.098Z,23.63
2022-08-31T03:08:07.073Z,23.60
2022-08-31T03:09:07.368Z,23.59
2022-08-31T03:10:07.706Z,23.59
2022-08-31T03:11:07.200Z,23.56
2022-08-31T03:12:07.384Z,23.55
2022-08-31T03:13:07.182Z,23.55
2022-08-31T03:14:07.487Z,23.57
2022-08-31T03:15:07.829Z,23.56
2022-08-31T03:16:07.041Z,23.57
2022-08-31T03:17:07.568Z,23.57
2022-08-31T03:18:07.249Z,23.56
2022-08-31T03:19:07.391Z,23.54
2022-08-31T03:20:07.472Z,23.51
2022-08-31T03:21:07.531Z,23.5
2022-08-31T03:22:07.651Z,23.51
2022-08-31T03:23:07.179Z,23.48
2022-08-31T03:24:07.655Z,23.5
2022-08-31T03:25:07.225Z,23.45
2022-08-31T03:26:07.439Z,23.39
2022-08-31T03:27:07.577Z,23.36
2022-08-31T03:28:07.477Z,23.36
2022-08-31T03:29:07.382Z,23.32
2022-08-31T03:30:07.592Z,23.25
2022-08-31T03:31:07.271Z,23.23
2022-08-31T03:32:07.551Z,23.25
2022-08-31T03:33:07.584Z,23.28
2022-08-31T03:34:07.472Z,23.27
2022-08-31T03:35:07.539Z,23.25
2022-08-31T03:36:07.101Z,23.20
2022-08-31T03:37:07.223Z,23.11
2022-08-31T03:38:07.230Z,23.06
2022-08-31T03:39:07.691Z,23.01
2022-08-31T03:40:07.338Z,22.98
2022-08-31T03:41:07.630Z,22.95
2022-08-31T03:42:07.033Z,22.94
2022-08-31T03:43:07.407Z,22.94
2022-08-31T03:44:07.688Z,22.97
2022-08-31T03:45:08.542Z,22.96
2022-08-31T03:46:11.782Z,22.97
2022-08-31T03:47:07.536Z,22.97
2022-08-31T03:48:12.017Z,22.96
2022-08-31T03:49:07.648Z,22.96
2022-08-31T03:50:07.044Z,22.95
2022-08-31T03:51:07.154Z,22.93
2022-08-31T03:52:07.430Z,22.86
2022-08-31T03:53:07.529Z,22.80
2022-08-31T03:54:07.061Z,22.76
2022-08-31T03:55:07.298Z,22.73
2022-08-31T03:56:07.466Z,22.69
2022-08-31T03:57:07.564Z,22.64
2022-08-31T03:58:06.866Z,22.62
2022-08-31T03:59:06.984Z,22.57
2022-08-31T04:00:07.993Z,22.51
2022-08-31T04:01:07.229Z,22.48
2022-08-31T04:02:07.863Z,22.47
2022-08-31T04:03:07.171Z,22.43
2022-08-31T04:04:07.230Z,22.38
2022-08-31T04:05:07.763Z,22.35
2022-08-31T04:06:07.610Z,22.34
2022-08-31T04:07:07.126Z,22.32
2022-08-31T04:08:07.374Z,22.31
2022-08-31T04:09:07.692Z,22.30
2022-08-31T04:10:07.337Z,22.31
2022-08-31T04:11:07.622Z,22.31
2022-08-31T04:12:07.257Z,22.38
2022-08-31T04:13:07.496Z,22.43
2022-08-31T04:14:07.239Z,22.47
2022-08-31T04:15:07.517Z,22.52
2022-08-31T04:16:07.267Z,22.55
2022-08-31T04:17:07.589Z,22.57
2022-08-31T04:18:07.449Z,22.60
2022-08-31T04:19:08.104Z,22.61
2022-08-31T04:20:07.738Z,22.59
2022-08-31T04:21:07.210Z,22.63
2022-08-31T04:22:07.431Z,22.62
2022-08-31T04:23:07.391Z,22.61
2022-08-31T04:24:07.371Z,22.61
2022-08-31T04:25:07.869Z,22.63
2022-08-31T04:26:07.321Z,22.67
2022-08-31T04:27:07.692Z,22.70
2022-08-31T04:28:07.117Z,22.73
2022-08-31T04:29:10.950Z,22.76
2022-08-31T04:30:07.821Z,22.79
2022-08-31T04:31:07.429Z,22.83
2022-08-31T04:32:07.404Z,22.85
2022-08-31T04:33:07.498Z,22.85
2022-08-31T04:34:07.251Z,22.86
2022-08-31T04:35:07.474Z,22.87
2022-08-31T04:36:07.915Z,22.87
2022-08-31T04:37:07.458Z,22.88
2022-08-31T04:38:07.451Z,22.91
2022-08-31T04:39:07.534Z,22.91
2022-08-31T04:40:07.290Z,22.93
2022-08-31T04:41:07.311Z,22.92
2022-08-31T04:42:07.586Z,22.90
2022-08-31T04:43:07.283Z,22.87
2022-08-31T04:44:07.661Z,22.84
2022-08-31T04:45:07.552Z,22.80
2022-08-31T04:46:07.496Z,22.79
2022-08-31T04:47:07.227Z,22.77
2022-08-31T04:48:07.711Z,22.75
2022-08-31T04:49:07.581Z,22.76
2022-08-31T04:50:07.671Z,22.76
2022-08-31T04:51:07.535Z,22.77
2022-08-31T04:52:07.213Z,22.77
2022-08-31T04:53:07.418Z,22.76
2022-08-31T04:54:07.488Z,22.75
2022-08-31T04:55:07.795Z,22.71
2022-08-31T04:56:07.219Z,22.71
2022-08-31T04:57:07.457Z,22.72
2022-08-31T04:58:07.560Z,22.72
2022-08-31T04:59:06.952Z,22.73
2022-08-31T05:00:07.663Z,22.77
2022-08-31T05:01:07.872Z,22.79
2022-08-31T05:02:07.515Z,22.79
2022-08-31T05:03:07.206Z,22.79
2022-08-31T05:04:07.570Z,22.79
2022-08-31T05:05:07.775Z,22.82
2022-08-31T05:06:07.550Z,22.82
2022-08-31T05:07:07.843Z,22.81
2022-08-31T05:08:07.282Z,22.79
2022-08-31T05:09:07.907Z,22.78
2022-08-31T05:10:07.625Z,22.77
2022-08-31T05:11:07.516Z,22.75
2022-08-31T05:12:07.788Z,22.77
2022-08-31T05:13:07.424Z,22.78
2022-08-31T05:14:07.790Z,22.76
2022-08-31T05:15:07.723Z,22.78
2022-08-31T05:16:07.562Z,22.78
2022-08-31T05:17:09.782Z,22.79
2022-08-31T05:18:07.950Z,22.79
2022-08-31T05:19:07.528Z,22.80
2022-08-31T05:20:07.859Z,22.79
2022-08-31T05:21:07.388Z,22.79
2022-08-31T05:22:07.682Z,22.78
2022-08-31T05:23:07.240Z,22.79
2022-08-31T05:24:07.647Z,22.79
2022-08-31T05:25:07.511Z,22.80
2022-08-31T05:26:07.374Z,22.80
2022-08-31T05:27:07.623Z,22.82
2022-08-31T05:28:07.185Z,22.82
2022-08-31T05:29:07.505Z,22.82
2022-08-31T05:30:07.312Z,22.81
2022-08-31T05:31:08.114Z,22.79
2022-08-31T05:32:07.275Z,22.80
2022-08-31T05:33:07.579Z,22.83
2022-08-31T05:34:07.142Z,22.83
2022-08-31T05:35:07.488Z,22.85
2022-08-31T05:36:07.788Z,22.87
2022-08-31T05:37:07.150Z,22.90
2022-08-31T05:38:07.636Z,22.95
2022-08-31T05:39:07.326Z,22.96
2022-08-31T05:40:08.125Z,22.98
2022-08-31T05:41:07.595Z,22.98
2022-08-31T05:42:07.745Z,23.01
2022-08-31T05:43:07.232Z,23.01
2022-08-31T05:44:07.491Z,23.01
2022-08-31T05:45:07.960Z,23.04
2022-08-31T05:46:10.260Z,23.05
2022-08-31T05:47:07.626Z,23.06
2022-08-31T05:48:07.336Z,23.10
2022-08-31T05:49:07.738Z,23.09
2022-08-31T05:50:08.285Z,23.11
2022-08-31T05:51:07.647Z,23.11
2022-08-31T05:52:07.297Z,23.11
2022-08-31T05:53:07.234Z,23.10
2022-08-31T05:54:07.265Z,23.10
2022-08-31T05:55:07.682Z,23.10
2022-08-31T05:56:07.368Z,23.12
2022-08-31T05:57:07.604Z,23.10
2022-08-31T05:58:07.611Z,23.12
2022-08-31T05:59:07.188Z,23.12
2022-08-31T06:00:08.269Z,23.15
2022-08-31T06:01:07.668Z,23.14
2022-08-31T06:02:07.683Z,23.17
2022-08-31T06:03:07.191Z,23.18
2022-08-31T06:04:07.407Z,23.21
2022-08-31T06:05:08.414Z,23.20
2022-08-31T06:06:08.151Z,23.20
2022-08-31T06:07:07.754Z,23.22
2022-08-31T06:08:09.065Z,23.23
2022-08-31T06:09:07.728Z,23.25
2022-08-31T06:10:07.349Z,23.27
2022-08-31T06:11:07.539Z,23.29
2022-08-31T06:12:07.858Z,23.28
2022-08-31T06:13:07.391Z,23.29
2022-08-31T06:14:07.793Z,23.32
2022-08-31T06:15:07.540Z,23.34
2022-08-31T06:16:07.358Z,23.35
2022-08-31T06:17:07.718Z,23.33
2022-08-31T06:18:07.094Z,23.32
2022-08-31T06:19:07.657Z,23.31
2022-08-31T06:20:07.539Z,23.31
2022-08-31T06:21:07.573Z,23.29
2022-08-31T06:22:07.806Z,23.26
2022-08-31T06:23:07.404Z,23.24
2022-08-31T06:24:07.630Z,23.22
2022-08-31T06:25:07.606Z,23.22
2022-08-31T06:26:07.240Z,23.23
2022-08-31T06:27:07.909Z,23.21
2022-08-31T06:28:07.317Z,23.20
2022-08-31T06:29:07.666Z,23.18
2022-08-31T06:30:07.332Z,23.19
2022-08-31T06:31:07.896Z,23.16
2022-08-31T06:32:07.540Z,23.14
2022-08-31T06:33:07.908Z,23.15
2022-08-31T06:34:07.502Z,23.16
2022-08-31T06:35:07.733Z,23.15
2022-08-31T06:36:07.183Z,23.14
2022-08-31T06:37:07.407Z,23.13
2022-08-31T06:38:07.390Z,23.14
2022-08-31T06:39:07.743Z,23.15
2022-08-31T06:40:07.564Z,23.16
2022-08-31T06:41:07.222Z,23.20
2022-08-31T06:42:07.790Z,23.19
2022-08-31T06:43:07.415Z,23.16
2022-08-31T06:44:07.710Z,23.15
2022-08-31T06:45:07.503Z,23.14
2022-08-31T06:46:07.343Z,23.16
2022-08-31T06:47:07.742Z,23.13
2022-08-31T06:48:07.334Z,23.16
2022-08-31T06:49:08.614Z,23.18
2022-08-31T06:50:07.569Z,23.20
2022-08-31T06:51:07.734Z,23.21
2022-08-31T06:52:07.105Z,23.23
2022-08-31T06:53:07.513Z,23.24
2022-08-31T06:54:27.568Z,23.25
2022-08-31T06:55:07.665Z,23.28
2022-08-31T06:56:07.233Z,23.30
2022-08-31T06:57:07.660Z,23.31
2022-08-31T06:58:07.305Z,23.32
2022-08-31T06:59:12.605Z,23.36
2022-08-31T07:00:07.991Z,23.38
2022-08-31T07:01:12.886Z,23.36
2022-08-31T07:02:07.664Z,23.36
2022-08-31T07:03:07.711Z,23.36
2022-08-31T07:04:07.394Z,23.36
2022-08-31T07:05:07.416Z,23.33
2022-08-31T07:06:07.867Z,23.37
2022-08-31T07:07:07.281Z,23.38
2022-08-31T07:08:07.415Z,23.35
2022-08-31T07:09:07.932Z,23.29
2022-08-31T07:10:07.456Z,23.22
2022-08-31T07:11:07.413Z,23.14
2022-08-31T07:12:07.748Z,23.12
2022-08-31T07:13:07.380Z,23.09
2022-08-31T07:14:07.696Z,23.11
2022-08-31T07:15:07.678Z,23.06
2022-08-31T07:16:07.761Z,23.01
2022-08-31T07:17:07.654Z,23.03
2022-08-31T07:18:10.400Z,23.02
2022-08-31T07:19:21.401Z,22.98
2022-08-31T07:20:07.894Z,22.96
2022-08-31T07:21:21.620Z,22.95
2022-08-31T07:22:07.158Z,22.93
2022-08-31T07:23:07.360Z,22.90
2022-08-31T07:24:07.529Z,22.92
2022-08-31T07:25:08.181Z,22.90
2022-08-31T07:26:07.450Z,22.96
2022-08-31T07:27:07.807Z,22.98
2022-08-31T07:28:07.095Z,23.01
2022-08-31T07:29:07.502Z,23
2022-08-31T07:30:08.257Z,23.00
2022-08-31T07:31:07.720Z,23
2022-08-31T07:32:07.860Z,22.97
2022-08-31T07:33:07.433Z,23.00
2022-08-31T07:34:07.769Z,22.95
2022-08-31T07:35:07.689Z,22.90
2022-08-31T07:36:07.790Z,22.93
2022-08-31T07:37:07.289Z,22.94
2022-08-31T07:38:07.717Z,22.94
2022-08-31T07:39:07.589Z,22.97
2022-08-31T07:40:08.348Z,23.02
2022-08-31T07:41:08.195Z,23.05
2022-08-31T07:42:07.630Z,23.07
2022-08-31T07:43:07.811Z,23.06
2022-08-31T07:44:07.919Z,23.06
2022-08-31T07:45:11.645Z,23.08
2022-08-31T07:46:07.648Z,23.09
2022-08-31T07:47:07.911Z,23.12
2022-08-31T07:48:07.601Z,23.19
2022-08-31T07:49:07.839Z,23.25
2022-08-31T07:50:07.289Z,23.31
2022-08-31T07:51:07.554Z,23.37
2022-08-31T07:52:07.444Z,23.43
2022-08-31T07:53:07.689Z,23.51
2022-08-31T07:54:07.604Z,23.63
2022-08-31T07:55:07.635Z,23.65
2022-08-31T07:56:07.240Z,23.66
2022-08-31T07:57:07.646Z,23.65
2022-08-31T07:58:07.347Z,23.68
2022-08-31T07:59:07.752Z,23.70
2022-08-31T08:00:08.638Z,23.71
2022-08-31T08:01:07.712Z,23.73
2022-08-31T08:02:07.414Z,23.76
2022-08-31T08:03:07.193Z,23.77
2022-08-31T08:04:07.606Z,23.78
2022-08-31T08:05:07.139Z,23.79
2022-08-31T08:06:07.807Z,23.81
2022-08-31T08:07:07.417Z,23.85
2022-08-31T08:08:10.671Z,23.92
2022-08-31T08:09:22.220Z,23.96
2022-08-31T08:10:07.346Z,24.01
2022-08-31T08:11:07.385Z,24.06
2022-08-31T08:12:07.832Z,24.15
2022-08-31T08:13:07.294Z,24.23
2022-08-31T08:14:08.725Z,24.31
2022-08-31T08:15:07.355Z,24.36
2022-08-31T08:16:07.314Z,24.42
2022-08-31T08:17:07.984Z,24.48
2022-08-31T08:18:07.665Z,24.52
2022-08-31T08:19:07.616Z,24.58
2022-08-31T08:20:10.455Z,24.60
2022-08-31T08:21:07.702Z,24.63
2022-08-31T08:22:07.122Z,24.70
2022-08-31T08:23:07.617Z,24.75
2022-08-31T08:24:07.996Z,24.80
2022-08-31T08:25:07.926Z,24.91
2022-08-31T08:26:07.333Z,24.91
2022-08-31T08:27:07.253Z,24.93
2022-08-31T08:28:22.829Z,24.95
2022-08-31T08:29:07.229Z,24.97
2022-08-31T08:30:07.903Z,24.99
2022-08-31T08:31:07.687Z,25.03
2022-08-31T08:32:07.436Z,25.08
2022-08-31T08:33:07.537Z,25.17
2022-08-31T08:34:07.055Z,25.26
2022-08-31T08:35:07.895Z,25.31
2022-08-31T08:36:07.877Z,25.35
2022-08-31T08:37:07.571Z,25.40
2022-08-31T08:38:08.079Z,25.43
2022-08-31T08:39:07.399Z,25.5
2022-08-31T08:40:07.296Z,25.54
2022-08-31T08:41:07.681Z,25.63
2022-08-31T08:42:07.152Z,25.71
2022-08-31T08:43:07.703Z,25.79
2022-08-31T08:44:07.153Z,25.83
2022-08-31T08:45:07.757Z,25.91
2022-08-31T08:46:31.273Z,25.95
2022-08-31T08:47:07.496Z,26.05
2022-08-31T08:48:07.791Z,26.13
2022-08-31T08:49:07.323Z,26.23
2022-08-31T08:50:07.364Z,26.29
2022-08-31T08:51:07.815Z,26.36
2022-08-31T08:52:07.403Z,26.39
2022-08-31T08:53:07.704Z,26.45
2022-08-31T08:54:07.490Z,26.50
2022-08-31T08:55:07.959Z,26.59
2022-08-31T08:56:29.584Z,26.63
2022-08-31T08:57:07.301Z,26.66
2022-08-31T08:58:07.670Z,26.70
2022-08-31T08:59:11.517Z,26.75
2022-08-31T09:00:07.812Z,26.79
2022-08-31T09:01:07.937Z,26.80
2022-08-31T09:02:07.780Z,26.89
2022-08-31T09:03:07.429Z,26.90
2022-08-31T09:04:07.650Z,26.94
2022-08-31T09:05:08.042Z,26.92
2022-08-31T09:06:07.795Z,26.89
2022-08-31T09:07:07.599Z,26.83
2022-08-31T09:08:07.279Z,26.89
2022-08-31T09:09:07.684Z,26.83
2022-08-31T09:10:07.310Z,26.75
2022-08-31T09:11:07.541Z,26.69
2022-08-31T09:12:10.194Z,26.67
2022-08-31T09:13:07.048Z,26.65
2022-08-31T09:14:07.447Z,26.68
2022-08-31T09:15:07.786Z,26.73
2022-08-31T09:16:08.310Z,26.75
2022-08-31T09:17:08.134Z,26.79
2022-08-31T09:18:07.353Z,26.87
2022-08-31T09:19:07.845Z,26.86
2022-08-31T09:20:07.259Z,26.81
2022-08-31T09:21:07.596Z,26.83
2022-08-31T09:22:07.673Z,26.89
2022-08-31T09:23:07.098Z,26.92
2022-08-31T09:24:07.651Z,26.83
2022-08-31T09:25:07.369Z,26.75
2022-08-31T09:26:08.573Z,26.69
2022-08-31T09:27:07.435Z,26.67
2022-08-31T09:28:07.853Z,26.77
2022-08-31T09:29:07.715Z,26.78
2022-08-31T09:30:07.543Z,26.71
2022-08-31T09:31:07.676Z,26.63
2022-08-31T09:32:07.694Z,26.61
2022-08-31T09:33:07.162Z,26.61
2022-08-31T09:34:07.719Z,26.60
2022-08-31T09:35:07.288Z,26.54
2022-08-31T09:36:07.812Z,26.55
2022-08-31T09:37:07.410Z,26.54
2022-08-31T09:38:07.668Z,26.53
2022-08-31T09:39:07.307Z,26.53
2022-08-31T09:40:07.792Z,26.53
2022-08-31T09:41:07.415Z,26.58
2022-08-31T09:42:07.438Z,26.66
2022-08-31T09:43:07.567Z,26.69
2022-08-31T09:44:07.900Z,26.72
2022-08-31T09:45:08.157Z,26.67
2022-08-31T09:46:07.657Z,26.68
2022-08-31T09:47:07.694Z,26.68
2022-08-31T09:48:07.304Z,26.69
2022-08-31T09:49:07.628Z,26.70
2022-08-31T09:50:07.991Z,26.68
2022-08-31T09:51:07.591Z,26.65
2022-08-31T09:52:07.182Z,26.64
2022-08-31T09:53:07.749Z,26.72
2022-08-31T09:54:07.552Z,26.75
2022-08-31T09:55:07.326Z,26.75
2022-08-31T09:56:07.957Z,26.71
2022-08-31T09:57:07.978Z,26.67
2022-08-31T09:58:07.540Z,26.63
2022-08-31T09:59:07.848Z,26.64
2022-08-31T10:00:08.468Z,26.69
2022-08-31T10:01:07.781Z,26.70
2022-08-31T10:02:07.653Z,26.71
2022-08-31T10:03:07.242Z,26.68
2022-08-31T10:04:07.588Z,26.64
2022-08-31T10:05:07.295Z,26.69
2022-08-31T10:06:07.729Z,26.69
2022-08-31T10:07:07.654Z,26.69
2022-08-31T10:08:07.327Z,26.72
2022-08-31T10:09:07.604Z,26.79
2022-08-31T10:10:07.293Z,26.83
2022-08-31T10:11:07.819Z,26.88
2022-08-31T10:12:07.341Z,26.87
2022-08-31T10:13:07.799Z,26.86
2022-08-31T10:14:07.937Z,26.85
2022-08-31T10:15:07.542Z,26.88
2022-08-31T10:16:07.497Z,26.94
2022-08-31T10:17:07.243Z,26.97
2022-08-31T10:19:07.447Z,27.06
2022-08-31T10:20:08.223Z,27.15
2022-08-31T10:21:08.463Z,27.20
2022-08-31T10:22:07.345Z,27.19
2022-08-31T10:23:07.683Z,27.21
2022-08-31T10:24:07.357Z,27.20
2022-08-31T10:25:07.768Z,27.26
2022-08-31T10:26:07.360Z,27.23
2022-08-31T10:27:07.861Z,27.22
2022-08-31T10:28:07.792Z,27.14
2022-08-31T10:29:07.417Z,27.07
2022-08-31T10:30:07.933Z,27.05
2022-08-31T10:31:07.784Z,27.16
2022-08-31T10:32:07.658Z,27.23
2022-08-31T10:33:07.390Z,27.20
2022-08-31T10:34:07.243Z,27.22
2022-08-31T10:35:07.809Z,27.26
2022-08-31T10:36:07.139Z,27.26
2022-08-31T10:37:07.634Z,27.28
2022-08-31T10:38:07.210Z,27.28
2022-08-31T10:39:07.649Z,27.28
2022-08-31T10:40:07.283Z,27.30
2022-08-31T10:41:07.978Z,27.31
2022-08-31T10:42:07.651Z,27.39
2022-08-31T10:43:07.155Z,27.40
2022-08-31T10:44:07.482Z,27.36
2022-08-31T10:45:08.045Z,27.32
2022-08-31T10:46:07.718Z,27.35
2022-08-31T10:47:07.764Z,27.37
2022-08-31T10:48:07.399Z,27.43
2022-08-31T10:49:07.807Z,27.50
2022-08-31T10:50:07.475Z,27.57
2022-08-31T10:51:07.646Z,27.65
2022-08-31T10:52:07.614Z,27.73
2022-08-31T10:53:07.075Z,27.77
2022-08-31T10:54:07.405Z,27.81
2022-08-31T10:55:07.147Z,27.86
2022-08-31T10:56:07.817Z,27.91
2022-08-31T10:57:07.317Z,27.95
2022-08-31T10:59:07.515Z,28.09
2022-08-31T11:00:07.938Z,28.09
2022-08-31T11:01:07.883Z,28.12
2022-08-31T11:02:07.581Z,28.18
2022-08-31T11:03:07.387Z,28.19
2022-08-31T11:04:07.399Z,28.20
2022-08-31T11:05:08.157Z,28.20
2022-08-31T11:06:07.711Z,28.24
2022-08-31T11:07:07.479Z,28.25
2022-08-31T11:08:07.201Z,28.19
2022-08-31T11:09:07.625Z,28.18
2022-08-31T11:10:08.103Z,28.21
2022-08-31T11:11:07.550Z,28.27
2022-08-31T11:12:07.362Z,28.22
2022-08-31T11:13:07.515Z,28.20
2022-08-31T11:14:07.652Z,28.17
2022-08-31T11:15:07.509Z,28.19
2022-08-31T11:16:07.652Z,28.23
2022-08-31T11:17:07.617Z,28.21
2022-08-31T11:18:08.275Z,28.29
2022-08-31T11:19:09.384Z,28.32
2022-08-31T11:20:07.605Z,28.25
2022-08-31T11:21:07.412Z,28.17
2022-08-31T11:22:07.849Z,28.10
2022-08-31T11:23:07.659Z,28.07
2022-08-31T11:24:07.401Z,28.03
2022-08-31T11:25:07.801Z,27.96
2022-08-31T11:26:07.547Z,27.96
2022-08-31T11:27:07.829Z,27.96
2022-08-31T11:28:07.737Z,27.91
2022-08-31T11:29:07.116Z,27.91
2022-08-31T11:30:07.458Z,27.92
2022-08-31T11:31:07.526Z,27.90
2022-08-31T11:32:07.991Z,27.89
2022-08-31T11:33:07.511Z,27.92
2022-08-31T11:34:15.901Z,27.90
2022-08-31T11:35:07.300Z,27.89
2022-08-31T11:36:07.802Z,27.90
2022-08-31T11:37:07.435Z,27.94
2022-08-31T11:38:07.674Z,27.94
2022-08-31T11:39:07.601Z,27.98
2022-08-31T11:40:07.489Z,28.08
2022-08-31T11:41:07.337Z,28.07
2022-08-31T11:42:07.595Z,28.03
2022-08-31T11:43:07.187Z,28.01
2022-08-31T11:44:07.674Z,27.95
2022-08-31T11:45:07.593Z,27.95
2022-08-31T11:46:07.437Z,27.89
2022-08-31T11:47:07.663Z,27.87
2022-08-31T11:48:07.391Z,27.87
2022-08-31T11:49:07.885Z,27.88
2022-08-31T11:50:07.755Z,27.86
2022-08-31T11:51:07.447Z,27.85
2022-08-31T11:52:08.022Z,27.87
2022-08-31T11:53:07.914Z,27.87
2022-08-31T11:54:07.735Z,27.94
2022-08-31T11:55:07.366Z,27.96
2022-08-31T11:56:07.942Z,28.01
2022-08-31T11:57:07.631Z,28.03
2022-08-31T11:58:07.258Z,28.01
2022-08-31T11:59:08.219Z,28.03
2022-08-31T12:00:07.794Z,28.07
2022-08-31T12:01:21.377Z,28.09
2022-08-31T12:02:07.283Z,28.07
2022-08-31T12:03:07.312Z,28.10
2022-08-31T12:04:07.669Z,28.14
2022-08-31T12:05:08.003Z,28.18
2022-08-31T12:06:07.866Z,28.18
2022-08-31T12:07:07.589Z,28.23
2022-08-31T12:08:07.590Z,28.31
2022-08-31T12:09:07.499Z,28.44
2022-08-31T12:10:07.366Z,28.45
2022-08-31T12:11:07.958Z,28.47
2022-08-31T12:12:07.484Z,28.49
2022-08-31T12:13:21.378Z,28.45
2022-08-31T12:14:07.313Z,28.40
2022-08-31T12:15:22.140Z,28.33
2022-08-31T12:16:07.506Z,28.32
2022-08-31T12:17:07.813Z,28.32
2022-08-31T12:18:07.395Z,28.34
2022-08-31T12:19:26.781Z,28.34
2022-08-31T12:20:07.310Z,28.43
2022-08-31T12:21:08.094Z,28.44
2022-08-31T12:22:07.325Z,28.46
2022-08-31T12:23:07.529Z,28.49
2022-08-31T12:24:07.377Z,28.54
2022-08-31T12:25:07.273Z,28.59
2022-08-31T12:26:07.738Z,28.59
2022-08-31T12:27:07.337Z,28.61
2022-08-31T12:28:08.014Z,28.63
2022-08-31T12:29:07.572Z,28.62
2022-08-31T12:30:07.455Z,28.59
2022-08-31T12:31:06.994Z,28.59
2022-08-31T12:32:10.568Z,28.57
2022-08-31T12:33:07.572Z,28.57
2022-08-31T12:34:07.547Z,28.61
2022-08-31T12:35:07.437Z,28.63
2022-08-31T12:36:07.855Z,28.71
2022-08-31T12:38:07.425Z,28.79
2022-08-31T12:39:07.199Z,28.84
2022-08-31T12:40:07.785Z,28.85
2022-08-31T12:41:07.696Z,28.84
2022-08-31T12:42:07.369Z,28.84
2022-08-31T12:43:07.638Z,28.89
2022-08-31T12:44:10.581Z,28.93
2022-08-31T12:45:08.061Z,28.95
2022-08-31T12:46:07.745Z,28.94
2022-08-31T12:48:07.681Z,29.03
2022-08-31T12:49:07.656Z,29.00
2022-08-31T12:50:07.544Z,29.01
2022-08-31T12:51:07.710Z,29.00
2022-08-31T12:52:07.372Z,29.02
2022-08-31T12:53:07.574Z,29.02
2022-08-31T12:54:07.284Z,29.03
2022-08-31T12:55:09.393Z,29.02
2022-08-31T12:56:07.300Z,29.04
2022-08-31T12:57:07.642Z,29.06